Time;durP1;ratioP1;P1;durP2;ratioP2;P2;SDS_P1;SDS_P2;PMS_P1;PMS_P2;Temp;Humidity;BMP_temperature;BMP_pressure;BME280_temperature;BME280_humidity;BME280_pressure;Samples;Min_cycle;Max_cycle;Signal;HPM_P1;HPM_P2
2022/11/30 00:00:12;;;;;;;27.20;16.50;;;;;;;18.08;44.24;102373.47;5043517;28;20466;-69
2022/11/30 00:02:37;;;;;;;27.30;15.73;;;;;;;18.21;44.42;102367.97;5047528;28;20582;-68
2022/11/30 00:05:03;;;;;;;26.10;14.77;;;;;;;18.15;44.22;102363.66;5051740;28;20037;-69
2022/11/30 00:07:28;;;;;;;24.70;14.67;;;;;;;18.07;44.23;102366.44;5048965;28;20029;-69
2022/11/30 00:09:54;;;;;;;28.43;15.33;;;;;;;17.70;44.89;102367.00;5043441;28;20483;-69
2022/11/30 00:12:19;;;;;;;23.43;14.63;;;;;;;16.67;47.36;102371.00;5040535;28;20432;-69
2022/11/30 00:14:45;;;;;;;25.20;14.20;;;;;;;17.70;45.47;102372.28;5039649;28;20041;-69
2022/11/30 00:17:10;;;;;;;23.30;13.60;;;;;;;17.87;44.67;102368.50;5081043;28;20056;-69
2022/11/30 00:19:36;;;;;;;20.27;12.63;;;;;;;17.83;44.83;102372.09;5048723;28;20033;-69
2022/11/30 00:22:01;;;;;;;21.83;12.33;;;;;;;17.92;45.03;102374.63;5037348;28;20078;-69
2022/11/30 00:24:26;;;;;;;20.73;12.50;;;;;;;17.76;45.05;102371.31;5040722;28;20402;-69
2022/11/30 00:26:51;;;;;;;21.43;12.47;;;;;;;17.34;46.18;102374.59;5071053;28;20024;-69
2022/11/30 00:29:17;;;;;;;22.23;12.17;;;;;;;17.35;46.07;102373.72;5048815;28;20033;-69
2022/11/30 00:31:42;;;;;;;22.57;13.53;;;;;;;17.42;46.01;102371.81;5045764;28;20387;-69
2022/11/30 00:34:08;;;;;;;20.47;12.23;;;;;;;17.40;45.56;102378.91;5037108;28;20108;-69
2022/11/30 00:36:33;;;;;;;20.57;12.20;;;;;;;17.72;45.40;102375.81;5048257;28;20037;-69
2022/11/30 00:38:58;;;;;;;18.43;11.50;;;;;;;17.67;45.06;102376.75;5050681;28;20052;-69
2022/11/30 00:41:24;;;;;;;25.87;11.57;;;;;;;17.88;44.87;102370.25;5044238;28;20029;-69
2022/11/30 00:43:49;;;;;;;23.07;12.03;;;;;;;17.56;45.25;102363.72;5046006;28;20051;-69
2022/11/30 00:46:15;;;;;;;25.87;13.20;;;;;;;17.95;44.81;102359.56;5035022;28;20029;-69
2022/11/30 00:48:40;;;;;;;23.40;11.90;;;;;;;17.97;44.77;102364.88;5046423;28;20410;-69
2022/11/30 00:51:08;;;;;;;24.73;11.93;;;;;;;17.78;44.96;102364.25;5050476;28;20040;-69
2022/11/30 00:53:34;;;;;;;22.00;11.43;;;;;;;17.68;45.20;102374.09;5080718;28;20033;-69
2022/11/30 00:55:59;;;;;;;23.30;12.43;;;;;;;18.18;44.63;102368.03;5046428;28;20501;-69
2022/11/30 00:58:24;;;;;;;18.43;11.07;;;;;;;18.17;44.49;102366.28;5049297;28;20025;-69
2022/11/30 01:00:50;;;;;;;18.87;10.40;;;;;;;17.80;44.89;102363.34;5079972;28;20116;-69
2022/11/30 01:03:15;;;;;;;13.40;9.17;;;;;;;17.91;44.89;102370.22;5047226;28;20099;-69
2022/11/30 01:05:42;;;;;;;20.60;10.70;;;;;;;18.25;44.02;102359.94;5051229;28;20028;-69
2022/11/30 01:08:09;;;;;;;16.67;9.97;;;;;;;18.04;44.27;102362.97;5049360;28;20519;-69
2022/11/30 01:10:35;;;;;;;19.67;10.23;;;;;;;17.74;45.40;102374.00;5048180;28;20482;-69
2022/11/30 01:13:01;;;;;;;17.07;9.67;;;;;;;17.67;45.63;102375.00;5048120;28;20024;-69
2022/11/30 01:15:27;;;;;;;19.53;10.17;;;;;;;17.68;45.35;102374.09;5049610;28;20037;-69
2022/11/30 01:17:52;;;;;;;14.37;9.03;;;;;;;17.93;44.54;102368.47;5047232;28;20033;-69
2022/11/30 01:20:17;;;;;;;14.27;8.43;;;;;;;17.87;45.06;102372.00;5047054;28;20037;-69
2022/11/30 01:22:43;;;;;;;17.10;9.80;;;;;;;17.83;44.66;102382.69;5048183;28;20075;-69
2022/11/30 01:25:08;;;;;;;12.57;9.33;;;;;;;17.81;45.11;102370.34;5076626;28;20509;-69
2022/11/30 01:27:34;;;;;;;16.03;8.80;;;;;;;18.13;44.34;102365.44;5062738;28;20021;-69
2022/11/30 01:29:59;;;;;;;21.70;10.30;;;;;;;18.79;42.78;102364.22;5030702;28;20110;-69
2022/11/30 01:32:24;;;;;;;16.93;9.23;;;;;;;17.70;44.80;102376.72;5030389;28;20037;-69
2022/11/30 01:34:50;;;;;;;18.67;9.40;;;;;;;18.11;44.28;102362.84;5064663;28;20105;-69
2022/11/30 01:37:16;;;;;;;16.27;9.27;;;;;;;18.28;44.16;102370.47;5048771;28;20410;-69
2022/11/30 01:39:42;;;;;;;17.50;9.43;;;;;;;17.84;44.38;102379.16;5047475;28;20028;-69
2022/11/30 01:42:14;;;;;;;13.17;7.80;;;;;;;18.01;44.18;102379.78;5059560;28;20060;-69
2022/11/30 01:44:51;;;;;;;14.35;8.60;;;;;;;17.69;44.85;102382.91;5044438;28;20478;-69
2022/11/30 01:47:21;;;;;;;16.73;7.40;;;;;;;17.15;45.67;102379.25;5049101;28;20037;-69
2022/11/30 01:49:52;;;;;;;14.20;7.53;;;;;;;17.24;44.46;102383.53;5045438;28;20782;-69
2022/11/30 01:52:19;;;;;;;16.53;8.20;;;;;;;17.27;45.32;102387.00;5047138;28;20037;-69
2022/11/30 01:54:56;;;;;;;15.53;8.40;;;;;;;17.53;44.62;102384.88;5046440;28;20526;-67
2022/11/30 01:57:28;;;;;;;14.23;7.50;;;;;;;17.19;45.27;102385.38;5036214;28;20048;-67
2022/11/30 01:59:59;;;;;;;18.42;8.73;;;;;;;16.82;45.80;102383.16;5027645;28;20116;-67
2022/11/30 02:02:58;;;;;;;19.23;8.30;;;;;;;17.42;44.56;102383.28;5038626;28;20045;-68
2022/11/30 02:05:25;;;;;;;12.97;8.67;;;;;;;17.02;45.68;102382.94;5021503;28;20499;-67
2022/11/30 02:07:50;;;;;;;14.93;8.50;;;;;;;16.90;46.12;102383.97;5048588;28;20020;-67
2022/11/30 02:10:21;;;;;;;15.07;9.53;;;;;;;16.93;46.01;102389.22;5064702;28;20036;-67
2022/11/30 02:13:16;;;;;;;15.50;9.63;;;;;;;17.03;45.81;102380.25;5048632;28;20025;-68
2022/11/30 02:16:09;;;;;;;16.87;9.03;;;;;;;16.98;46.06;102387.41;5046823;28;20028;-69
2022/11/30 02:18:56;;;;;;;17.52;10.15;;;;;;;17.00;45.71;102382.09;5040876;28;20040;-70
2022/11/30 02:21:41;;;;;;;18.83;9.73;;;;;;;17.05;45.96;102381.13;5046201;28;20071;-69
2022/11/30 02:24:26;;;;;;;16.30;9.97;;;;;;;17.10;45.70;102379.31;5031508;28;20033;-69
2022/11/30 02:27:13;;;;;;;15.87;10.40;;;;;;;17.28;45.03;102390.50;5045497;28;20092;-70
2022/11/30 02:29:44;;;;;;;20.00;11.07;;;;;;;16.99;45.75;102378.56;5047767;28;20127;-69
2022/11/30 02:32:19;;;;;;;15.57;9.63;;;;;;;17.45;45.12;102380.59;5062761;28;20057;-70
2022/11/30 02:34:47;;;;;;;13.90;9.80;;;;;;;17.19;45.07;102388.03;5047296;28;20044;-69
2022/11/30 02:37:13;;;;;;;19.07;10.53;;;;;;;17.33;44.87;102393.97;5046905;28;20040;-67
2022/11/30 02:39:39;;;;;;;18.33;9.80;;;;;;;17.04;45.61;102389.94;5048624;28;20032;-67
2022/11/30 02:42:14;;;;;;;21.33;11.50;;;;;;;17.20;45.51;102395.03;5050500;28;20044;-67
2022/11/30 02:44:42;;;;;;;15.50;9.43;;;;;;;16.95;46.10;102387.41;5052963;28;20037;-68
2022/11/30 02:47:28;;;;;;;13.23;10.13;;;;;;;16.84;46.66;102384.00;5051703;28;20569;-69
2022/11/30 02:50:15;;;;;;;14.70;10.27;;;;;;;17.10;45.92;102387.25;5047188;28;20040;-69
2022/11/30 02:52:41;;;;;;;14.10;9.90;;;;;;;17.07;46.29;102384.63;5053286;28;20040;-70
2022/11/30 02:55:09;;;;;;;13.97;9.03;;;;;;;17.04;45.92;102382.03;5042579;28;20039;-68
2022/11/30 02:57:35;;;;;;;15.90;10.20;;;;;;;16.88;46.24;102385.72;5046591;28;20025;-68
2022/11/30 03:00:05;;;;;;;17.57;10.80;;;;;;;16.94;45.69;102380.41;5036798;28;20114;-70
2022/11/30 03:02:31;;;;;;;15.97;10.30;;;;;;;17.02;45.62;102388.22;5041897;28;20091;-68
2022/11/30 03:04:56;;;;;;;16.50;10.10;;;;;;;16.59;45.75;102394.81;5046665;28;20494;-68
2022/11/30 03:07:22;;;;;;;17.23;10.67;;;;;;;16.87;45.38;102400.69;5039335;28;20162;-67
2022/11/30 03:09:47;;;;;;;18.17;9.73;;;;;;;16.54;46.11;102401.91;5043442;28;20029;-67
2022/11/30 03:12:12;;;;;;;14.33;9.00;;;;;;;16.23;46.40;102402.22;5050135;28;20061;-67
2022/11/30 03:14:38;;;;;;;16.73;10.87;;;;;;;16.74;44.94;102410.50;5051768;28;20471;-68
2022/11/30 03:17:05;;;;;;;16.63;9.93;;;;;;;16.55;45.30;102404.53;5079601;28;20067;-68
2022/11/30 03:19:32;;;;;;;15.60;9.40;;;;;;;16.32;45.15;102402.13;5050237;28;20030;-68
2022/11/30 03:21:57;;;;;;;17.70;10.17;;;;;;;16.68;44.59;102410.56;5041005;28;20400;-67
2022/11/30 03:24:22;;;;;;;19.77;9.53;;;;;;;16.11;45.80;102412.00;5047592;28;20025;-67
2022/11/30 03:26:48;;;;;;;13.80;9.50;;;;;;;15.85;45.86;102411.28;5044718;28;20398;-67
2022/11/30 03:29:13;;;;;;;14.37;9.47;;;;;;;16.03;45.64;102416.44;5043789;28;20116;-67
2022/11/30 03:31:39;;;;;;;15.23;9.67;;;;;;;15.96;45.99;102420.00;5047499;28;20032;-67
2022/11/30 03:34:04;;;;;;;16.53;10.00;;;;;;;15.83;45.91;102410.44;5047693;28;20394;-68
2022/11/30 03:36:29;;;;;;;16.27;9.97;;;;;;;15.72;45.75;102415.75;5050091;28;20028;-67
2022/11/30 03:38:55;;;;;;;14.80;10.17;;;;;;;15.79;45.63;102428.00;5051207;28;20060;-67
2022/11/30 03:41:20;;;;;;;17.73;10.50;;;;;;;15.72;46.04;102413.97;5050195;28;20037;-67
2022/11/30 03:43:46;;;;;;;15.13;10.50;;;;;;;15.52;45.90;102421.13;5050461;28;20025;-67
2022/11/30 03:46:12;;;;;;;16.20;10.67;;;;;;;15.30;46.84;102421.22;5051526;28;20055;-68
2022/11/30 03:48:40;;;;;;;18.20;10.60;;;;;;;15.28;46.84;102420.38;5052435;28;20029;-68
2022/11/30 03:51:06;;;;;;;23.10;12.03;;;;;;;14.54;48.70;102421.41;5033847;28;20874;-67
2022/11/30 03:53:32;;;;;;;18.13;11.37;;;;;;;14.24;49.99;102422.31;5047019;28;20163;-68
2022/11/30 03:56:00;;;;;;;21.77;12.47;;;;;;;15.01;48.04;102424.84;5041900;28;20078;-67
2022/11/30 03:58:26;;;;;;;17.80;11.07;;;;;;;15.04;47.86;102416.06;5079655;28;20032;-67
2022/11/30 04:01:04;;;;;;;18.90;12.20;;;;;;;14.95;48.09;102424.88;5043330;28;20029;-68
2022/11/30 04:03:30;;;;;;;18.77;11.50;;;;;;;15.10;47.77;102419.56;5064877;28;20053;-67
2022/11/30 04:05:56;;;;;;;19.33;12.43;;;;;;;15.37;46.32;102422.09;5046259;28;20037;-67
2022/11/30 04:08:22;;;;;;;25.50;12.50;;;;;;;15.15;47.25;102429.19;5046211;28;21158;-68
2022/11/30 04:10:51;;;;;;;19.70;12.23;;;;;;;15.06;47.19;102431.00;5043372;28;20036;-67
2022/11/30 04:13:16;;;;;;;17.90;11.07;;;;;;;15.16;47.19;102423.06;5045685;28;20051;-68
2022/11/30 04:15:42;;;;;;;20.43;11.37;;;;;;;15.21;47.26;102424.78;5049928;28;20037;-67
2022/11/30 04:18:07;;;;;;;21.60;11.47;;;;;;;15.20;46.63;102425.66;5032363;28;20033;-68
2022/11/30 04:20:32;;;;;;;20.67;12.20;;;;;;;15.21;46.88;102429.19;5031197;28;20030;-67
2022/11/30 04:22:58;;;;;;;19.80;11.33;;;;;;;15.14;47.08;102433.59;5044704;28;20471;-68
2022/11/30 04:25:24;;;;;;;18.80;10.10;;;;;;;15.32;46.28;102431.75;5049696;28;20371;-68
2022/11/30 04:27:49;;;;;;;20.30;11.43;;;;;;;15.04;47.05;102422.22;5048077;28;20540;-67
2022/11/30 04:30:15;;;;;;;18.13;11.47;;;;;;;15.31;46.48;102430.91;5032420;28;20108;-67
2022/11/30 04:32:41;;;;;;;26.77;10.77;;;;;;;15.19;46.76;102425.69;5042948;28;20551;-68
2022/11/30 04:35:06;;;;;;;18.03;9.87;;;;;;;15.32;46.59;102430.03;5047765;28;20028;-67
2022/11/30 04:37:32;;;;;;;18.50;11.57;;;;;;;15.18;47.22;102426.56;5049572;28;20028;-68
2022/11/30 04:39:57;;;;;;;17.37;10.47;;;;;;;15.14;47.31;102427.44;5047000;28;20031;-68
2022/11/30 04:42:23;;;;;;;17.03;11.23;;;;;;;15.24;46.83;102432.69;5045432;28;20072;-67
2022/11/30 04:44:48;;;;;;;15.93;9.97;;;;;;;15.40;47.30;102424.69;5038668;28;20425;-70
2022/11/30 04:47:14;;;;;;;15.90;12.07;;;;;;;15.42;47.28;102438.75;5047910;28;20464;-67
2022/11/30 04:49:39;;;;;;;14.37;10.07;;;;;;;15.10;47.99;102432.72;5050887;28;20068;-68
2022/11/30 04:52:04;;;;;;;15.23;10.43;;;;;;;15.66;47.30;102440.41;5049332;28;20057;-68
2022/11/30 04:54:30;;;;;;;16.50;10.90;;;;;;;15.88;46.19;102440.28;5047873;28;20094;-68
2022/11/30 04:56:55;;;;;;;14.53;9.67;;;;;;;15.83;46.70;102432.41;5045962;28;20036;-68
2022/11/30 04:59:20;;;;;;;14.00;9.30;;;;;;;15.87;46.97;102442.03;5047365;28;20367;-68
2022/11/30 05:01:46;;;;;;;15.70;10.20;;;;;;;15.98;46.57;102444.63;5064695;28;20116;-70
2022/11/30 05:04:11;;;;;;;12.73;9.53;;;;;;;15.63;47.03;102440.38;5049354;28;20451;-68
2022/11/30 05:06:36;;;;;;;15.57;10.40;;;;;;;15.86;46.96;102445.56;5046163;28;20497;-68
2022/11/30 05:09:02;;;;;;;15.13;9.73;;;;;;;15.98;46.82;102441.06;5047389;28;20112;-68
2022/11/30 05:11:27;;;;;;;16.37;9.97;;;;;;;16.43;45.85;102446.88;5035348;28;20039;-68
2022/11/30 05:13:52;;;;;;;12.70;8.70;;;;;;;16.66;45.29;102438.75;5045778;28;20033;-68
2022/11/30 05:16:18;;;;;;;13.67;9.33;;;;;;;16.63;45.27;102444.06;5044442;28;20259;-70
2022/11/30 05:18:43;;;;;;;14.63;9.30;;;;;;;16.56;45.82;102450.28;5040649;28;20033;-68
2022/11/30 05:21:08;;;;;;;12.47;8.63;;;;;;;16.29;46.30;102449.63;5048800;28;20043;-68
2022/11/30 05:23:34;;;;;;;13.13;8.07;;;;;;;15.99;46.52;102446.38;5047906;28;20165;-68
2022/11/30 05:26:03;;;;;;;11.43;7.90;;;;;;;16.15;46.42;102456.81;5036653;28;20490;-68
2022/11/30 05:28:28;;;;;;;13.07;8.47;;;;;;;16.43;45.45;102458.31;5046501;28;20021;-68
2022/11/30 05:30:53;;;;;;;12.83;8.20;;;;;;;16.25;45.96;102454.09;5036812;28;20548;-68
2022/11/30 05:33:19;;;;;;;12.87;9.07;;;;;;;15.96;46.53;102446.38;5029801;28;20021;-68
2022/11/30 05:35:44;;;;;;;14.57;9.33;;;;;;;16.51;45.96;102444.19;5080347;28;20098;-68
2022/11/30 05:38:10;;;;;;;15.17;8.73;;;;;;;16.09;46.47;102442.75;5072854;28;20497;-68
2022/11/30 05:40:35;;;;;;;15.70;9.27;;;;;;;16.34;45.58;102447.84;5046381;28;20166;-68
2022/11/30 05:43:02;;;;;;;17.17;9.73;;;;;;;16.27;46.32;102448.78;5078358;28;20518;-68
2022/11/30 05:45:28;;;;;;;17.60;10.23;;;;;;;16.34;45.59;102445.22;5046456;28;20608;-68
2022/11/30 05:47:53;;;;;;;14.67;9.10;;;;;;;16.14;46.40;102455.03;5046283;28;20079;-68
2022/11/30 05:50:19;;;;;;;13.70;9.10;;;;;;;16.32;45.43;102449.63;5047427;28;20033;-68
2022/11/30 05:52:45;;;;;;;13.27;8.83;;;;;;;16.31;45.28;102447.88;5048847;28;20053;-68
2022/11/30 05:55:10;;;;;;;15.60;9.73;;;;;;;16.26;45.89;102449.66;5049477;28;20079;-68
2022/11/30 05:57:37;;;;;;;19.23;9.67;;;;;;;16.34;45.41;102447.84;5044180;28;20090;-68
2022/11/30 06:00:07;;;;;;;17.77;9.60;;;;;;;16.04;46.58;102455.09;5047056;28;20028;-68
2022/11/30 06:02:32;;;;;;;16.07;9.57;;;;;;;16.24;46.33;102459.38;5049091;28;20045;-68
2022/11/30 06:04:58;;;;;;;16.10;9.03;;;;;;;16.35;46.31;102464.53;5046167;28;20036;-68
2022/11/30 06:07:23;;;;;;;13.20;9.17;;;;;;;16.30;46.32;102461.94;5040781;28;20039;-68
2022/11/30 06:09:48;;;;;;;17.07;10.03;;;;;;;16.10;46.55;102464.72;5082814;28;20527;-68
2022/11/30 06:12:14;;;;;;;12.93;8.53;;;;;;;16.47;45.84;102475.00;5048106;28;20394;-68
2022/11/30 06:14:39;;;;;;;17.87;10.43;;;;;;;16.68;45.48;102476.56;5051362;28;20506;-68
2022/11/30 06:17:04;;;;;;;18.70;10.53;;;;;;;16.42;46.39;102472.41;5041265;28;20495;-68
2022/11/30 06:19:30;;;;;;;16.40;11.50;;;;;;;16.48;46.13;102478.53;5048706;28;20431;-68
2022/11/30 06:21:55;;;;;;;16.50;11.20;;;;;;;16.53;45.97;102469.66;5044660;28;20028;-68
2022/11/30 06:24:21;;;;;;;16.37;10.03;;;;;;;16.57;46.02;102470.53;5051293;28;20429;-68
2022/11/30 06:26:46;;;;;;;19.30;10.57;;;;;;;16.60;46.11;102475.78;5053545;28;20402;-68
2022/11/30 06:29:11;;;;;;;15.13;10.20;;;;;;;16.79;45.90;102477.34;5054374;28;20077;-68
2022/11/30 06:31:37;;;;;;;17.00;9.83;;;;;;;16.66;45.65;102474.84;5050712;28;20043;-68
2022/11/30 06:34:02;;;;;;;15.37;9.57;;;;;;;16.42;46.62;102480.31;5050551;28;20394;-68
2022/11/30 06:36:27;;;;;;;14.97;9.73;;;;;;;16.45;46.31;102482.94;5046096;28;20533;-68
2022/11/30 06:38:54;;;;;;;14.73;9.50;;;;;;;16.42;46.06;102482.97;5048012;28;20021;-68
2022/11/30 06:41:19;;;;;;;15.43;9.60;;;;;;;16.50;46.41;102480.25;5057032;28;20115;-68
2022/11/30 06:43:45;;;;;;;15.87;9.63;;;;;;;16.50;46.62;102474.09;5053101;28;20120;-68
2022/11/30 06:46:10;;;;;;;11.63;8.53;;;;;;;16.48;46.78;102470.59;5051828;28;20060;-68
2022/11/30 06:48:36;;;;;;;13.20;8.73;;;;;;;16.45;47.02;102472.38;5065613;28;20025;-68
2022/11/30 06:51:05;;;;;;;14.50;8.93;;;;;;;16.63;46.74;102470.47;5053798;28;20111;-68
2022/11/30 06:53:30;;;;;;;11.30;8.23;;;;;;;16.49;46.68;102477.66;5053291;28;20375;-68
2022/11/30 06:55:56;;;;;;;12.53;8.43;;;;;;;16.76;46.25;102476.47;5050421;28;20079;-68
2022/11/30 06:58:21;;;;;;;13.93;10.13;;;;;;;16.72;45.87;102483.59;5051541;28;20037;-68
2022/11/30 07:00:46;;;;;;;14.57;8.70;;;;;;;16.66;46.18;102486.25;5049986;28;20032;-68
2022/11/30 07:03:12;;;;;;;16.10;9.97;;;;;;;16.35;46.81;102486.53;5044198;28;20052;-68
2022/11/30 07:05:41;;;;;;;15.63;9.57;;;;;;;16.43;46.70;102491.75;5052734;28;20032;-68
2022/11/30 07:08:07;;;;;;;16.90;9.63;;;;;;;16.39;46.92;102493.53;5051342;28;20032;-69
2022/11/30 07:10:32;;;;;;;11.37;8.27;;;;;;;16.56;46.74;102495.16;5066045;28;20391;-68
2022/11/30 07:12:58;;;;;;;12.13;8.50;;;;;;;16.64;46.76;102493.34;5052042;28;20029;-69
2022/11/30 07:15:23;;;;;;;15.43;9.33;;;;;;;16.60;46.53;102492.47;5051003;28;20025;-68
2022/11/30 07:17:48;;;;;;;13.07;9.37;;;;;;;16.79;46.25;102500.25;5051448;28;20040;-68
2022/11/30 07:20:14;;;;;;;17.20;9.83;;;;;;;16.52;46.51;102501.38;5052203;28;20475;-68
2022/11/30 07:22:39;;;;;;;18.07;9.77;;;;;;;16.56;46.86;102511.88;5049118;28;20429;-69
2022/11/30 07:27:49;;;;;;;12.63;9.13;;;;;;;16.74;46.81;102516.09;5052268;28;20094;-69
2022/11/30 07:30:14;;;;;;;16.90;11.33;;;;;;;16.50;47.12;102516.31;5052081;28;20025;-69
2022/11/30 07:32:40;;;;;;;16.70;10.70;;;;;;;16.84;46.72;102523.94;5083958;28;20036;-69
2022/11/30 07:35:05;;;;;;;17.37;11.43;;;;;;;16.38;47.64;102527.88;5084479;28;20469;-69
2022/11/30 07:37:31;;;;;;;15.87;10.93;;;;;;;16.52;48.03;102530.41;5048764;28;20482;-69
2022/11/30 07:39:56;;;;;;;18.73;11.73;;;;;;;16.28;47.84;102527.06;5049424;28;20028;-69
2022/11/30 07:42:22;;;;;;;19.73;12.63;;;;;;;16.45;47.77;102525.16;5044727;28;20026;-69
2022/11/30 07:44:48;;;;;;;19.70;12.30;;;;;;;16.27;48.20;102528.81;5050369;28;20035;-69
2022/11/30 07:47:15;;;;;;;19.00;12.00;;;;;;;16.57;47.50;102525.97;5052623;28;20033;-69
2022/11/30 07:49:40;;;;;;;19.53;11.10;;;;;;;16.58;47.37;102532.97;5050946;28;20116;-69
2022/11/30 07:52:06;;;;;;;18.80;12.30;;;;;;;16.25;47.53;102524.41;5049916;28;20123;-68
2022/11/30 07:54:31;;;;;;;18.73;11.10;;;;;;;16.62;46.87;102526.78;5051268;28;20106;-68
2022/11/30 07:56:56;;;;;;;17.53;11.10;;;;;;;16.91;46.42;102538.88;5052508;28;20183;-69
2022/11/30 07:59:22;;;;;;;22.83;11.37;;;;;;;16.20;47.38;102539.44;5048648;28;20028;-69
2022/11/30 08:01:47;;;;;;;18.80;11.67;;;;;;;16.16;48.19;102548.25;5047227;28;20486;-69
2022/11/30 08:04:13;;;;;;;16.47;10.60;;;;;;;16.42;47.82;102535.75;5084020;28;20039;-69
2022/11/30 08:06:39;;;;;;;17.67;10.87;;;;;;;16.78;46.85;102544.25;5049772;28;20036;-69
2022/11/30 08:09:04;;;;;;;18.03;10.97;;;;;;;16.87;46.73;102542.41;5051102;28;20033;-69
2022/11/30 08:11:32;;;;;;;16.60;10.93;;;;;;;17.02;46.21;102539.66;5049312;28;20171;-69
2022/11/30 08:13:58;;;;;;;17.47;11.70;;;;;;;17.22;46.11;102554.44;5049974;28;20044;-68
2022/11/30 08:16:27;;;;;;;21.40;12.33;;;;;;;17.04;46.34;102551.09;5052133;28;20029;-68
2022/11/30 08:18:55;;;;;;;18.43;11.50;;;;;;;17.37;45.73;102541.03;5051447;28;20029;-69
2022/11/30 08:21:20;;;;;;;20.43;11.87;;;;;;;17.33;45.76;102552.53;5050332;28;20029;-68
2022/11/30 08:23:51;;;;;;;23.47;13.03;;;;;;;17.44;45.89;102555.94;5049638;28;20036;-68
2022/11/30 08:26:31;;;;;;;21.67;12.83;;;;;;;17.67;45.25;102564.47;5050626;28;20051;-69
2022/11/30 08:28:58;;;;;;;20.53;11.63;;;;;;;17.50;45.24;102565.56;5049800;28;20025;-69
2022/11/30 08:31:26;;;;;;;18.53;11.80;;;;;;;17.56;45.73;102559.34;5063836;28;20437;-69
2022/11/30 08:33:57;;;;;;;19.87;11.77;;;;;;;17.53;45.79;102569.94;5069152;28;20093;-69
2022/11/30 08:36:24;;;;;;;21.50;12.60;;;;;;;17.25;46.94;102575.53;5056699;28;20025;-68
2022/11/30 08:38:49;;;;;;;24.10;13.57;;;;;;;17.11;47.18;102571.25;5049845;28;20561;-69
2022/11/30 08:41:20;;;;;;;21.23;12.83;;;;;;;17.32;46.92;102577.22;5051203;28;20497;-69
2022/11/30 08:43:47;;;;;;;26.17;14.13;;;;;;;17.66;45.79;102575.97;5049153;28;20544;-69
2022/11/30 08:46:15;;;;;;;21.00;12.97;;;;;;;17.77;45.55;102577.56;5047333;28;20020;-69
2022/11/30 08:48:40;;;;;;;23.53;13.73;;;;;;;17.45;46.14;102585.91;5045516;28;20037;-69
2022/11/30 08:51:10;;;;;;;29.23;16.47;;;;;;;17.67;45.75;102589.16;5043327;28;20052;-69
2022/11/30 08:53:36;;;;;;;25.37;13.93;;;;;;;17.74;45.62;102589.97;5049882;28;20447;-69
2022/11/30 08:56:08;;;;;;;21.70;13.30;;;;;;;17.61;46.45;102594.53;5042605;28;20112;-69
2022/11/30 08:58:36;;;;;;;26.60;16.20;;;;;;;17.81;45.73;102594.28;5047131;28;20453;-68
2022/11/30 09:01:09;;;;;;;25.67;14.93;;;;;;;17.68;45.99;102590.94;5050559;28;20047;-68
2022/11/30 09:03:35;;;;;;;24.60;15.10;;;;;;;17.77;46.41;102593.44;5049004;28;20068;-68
2022/11/30 09:06:11;;;;;;;28.27;15.93;;;;;;;17.76;46.26;102591.72;5049084;28;20016;-68
2022/11/30 09:08:37;;;;;;;29.87;16.90;;;;;;;17.27;46.68;102594.91;5046810;28;20028;-68
2022/11/30 09:11:10;;;;;;;31.73;17.37;;;;;;;17.58;46.61;102592.78;5048580;28;20025;-68
2022/11/30 09:13:36;;;;;;;24.30;15.13;;;;;;;17.96;45.55;102591.47;5050803;28;20041;-69
2022/11/30 09:16:01;;;;;;;25.57;15.40;;;;;;;18.26;45.39;102588.44;5049971;28;20033;-68
2022/11/30 09:18:26;;;;;;;29.00;16.13;;;;;;;18.09;46.05;102592.19;5049735;28;20029;-68
2022/11/30 09:20:53;;;;;;;28.70;16.93;;;;;;;17.46;46.45;102596.47;5048679;28;20036;-69
2022/11/30 09:23:19;;;;;;;24.90;15.83;;;;;;;16.76;48.50;102597.94;5049453;28;20021;-68
2022/11/30 09:25:44;;;;;;;29.70;16.17;;;;;;;17.46;47.38;102604.38;5049548;28;20021;-69
2022/11/30 09:28:09;;;;;;;26.13;16.17;;;;;;;18.09;46.14;102594.84;5051228;28;20029;-69
2022/11/30 09:30:35;;;;;;;23.53;14.27;;;;;;;17.16;48.60;102604.69;5050086;28;20029;-69
2022/11/30 09:33:00;;;;;;;25.30;15.70;;;;;;;17.99;46.48;102595.84;5048597;28;20043;-68
2022/11/30 09:35:26;;;;;;;24.83;14.20;;;;;;;18.08;46.00;102593.09;5050806;28;20033;-68
2022/11/30 09:37:52;;;;;;;26.10;15.13;;;;;;;18.01;46.59;102599.38;5048724;28;20048;-68
2022/11/30 09:40:21;;;;;;;24.37;14.80;;;;;;;18.01;46.25;102604.66;5054931;28;20119;-69
2022/11/30 09:43:02;;;;;;;32.83;17.00;;;;;;;18.27;46.05;102601.66;5069765;28;20393;-69
2022/11/30 09:45:31;;;;;;;31.40;16.43;;;;;;;18.26;46.97;102604.31;5048366;28;20056;-68
2022/11/30 09:48:12;;;;;;;31.27;16.10;;;;;;;18.12;46.90;102607.13;5077453;28;20021;-68
2022/11/30 09:50:42;;;;;;;34.70;19.10;;;;;;;17.97;46.12;102610.88;5031616;28;20037;-68
2022/11/30 09:53:18;;;;;;;37.53;18.63;;;;;;;18.39;46.47;102612.94;5046436;28;20028;-68
2022/11/30 09:55:43;;;;;;;32.43;18.20;;;;;;;18.22;46.06;102616.72;5047837;28;20040;-68
2022/11/30 09:58:37;;;;;;;30.47;17.30;;;;;;;18.31;46.41;102613.06;5046403;28;20025;-68
2022/11/30 10:01:12;;;;;;;28.90;17.07;;;;;;;18.14;46.84;102616.81;5050634;28;20031;-68
2022/11/30 10:03:37;;;;;;;29.00;16.53;;;;;;;18.52;46.12;102616.28;5069068;28;20048;-68
2022/11/30 10:06:31;;;;;;;27.93;16.00;;;;;;;18.80;45.59;102617.59;5048032;28;20027;-68
2022/11/30 10:09:05;;;;;;;28.80;15.97;;;;;;;17.60;48.26;102613.94;5050239;28;20051;-68
2022/11/30 10:11:43;;;;;;;30.77;16.70;;;;;;;18.08;47.02;102614.25;5051363;28;20690;-68
2022/11/30 10:14:40;;;;;;;39.87;16.47;;;;;;;17.98;47.49;102612.63;5082228;28;20055;-68
2022/11/30 10:17:45;;;;;;;34.50;16.97;;;;;;;18.44;46.71;102609.34;5048961;28;20127;-69
2022/11/30 10:20:24;;;;;;;29.17;15.20;;;;;;;18.69;45.73;102606.31;5050468;28;20132;-69
2022/11/30 10:23:12;;;;;;;28.40;16.07;;;;;;;18.36;46.04;102605.94;5047539;28;20060;-68
2022/11/30 10:25:50;;;;;;;31.43;17.00;;;;;;;18.61;46.10;102608.19;5045821;28;20025;-68
2022/11/30 10:28:30;;;;;;;24.50;14.13;;;;;;;18.67;45.57;102610.78;5051286;28;20035;-69
2022/11/30 10:30:56;;;;;;;27.97;15.80;;;;;;;18.35;45.97;102601.53;5050123;28;20032;-68
2022/11/30 10:33:34;;;;;;;27.37;16.17;;;;;;;18.84;44.87;102612.28;5056403;28;20029;-68
2022/11/30 10:36:08;;;;;;;24.73;14.87;;;;;;;18.54;46.01;102617.16;5053161;28;20032;-69
2022/11/30 10:38:44;;;;;;;33.03;16.70;;;;;;;18.11;46.59;102600.97;5050127;28;20033;-68
2022/11/30 10:41:13;;;;;;;27.10;16.17;;;;;;;17.18;49.82;102621.41;5047722;28;20029;-68
2022/11/30 10:43:48;;;;;;;32.70;16.37;;;;;;;18.01;48.30;102615.25;5034893;28;20035;-69
2022/11/30 10:46:25;;;;;;;28.20;15.63;;;;;;;18.64;47.08;102616.09;5037345;28;20029;-68
2022/11/30 10:48:57;;;;;;;28.73;15.60;;;;;;;18.13;47.42;102611.53;5058202;28;20029;-68
2022/11/30 10:51:24;;;;;;;30.75;16.33;;;;;;;18.21;47.89;102606.16;5040982;28;20495;-68
2022/11/30 10:53:49;;;;;;;29.40;14.83;;;;;;;17.76;47.85;102614.63;5049271;28;20032;-68
2022/11/30 10:56:15;;;;;;;28.93;15.90;;;;;;;19.02;46.34;102605.81;5051057;28;20044;-69
2022/11/30 10:59:21;;;;;;;29.03;15.37;;;;;;;18.13;47.27;102599.19;5051096;28;20040;-69
2022/11/30 11:01:47;;;;;;;29.37;14.27;;;;;;;19.17;45.61;102594.94;5026348;28;20495;-68
2022/11/30 11:04:24;;;;;;;25.87;14.70;;;;;;;19.83;43.86;102587.50;5047172;28;20032;-69
2022/11/30 11:07:06;;;;;;;21.00;12.63;;;;;;;19.91;42.65;102590.00;5077717;28;20075;-69
2022/11/30 11:09:45;;;;;;;21.23;11.30;;;;;;;19.94;42.54;102593.44;5048308;28;20399;-69
2022/11/30 11:12:18;;;;;;;21.70;12.63;;;;;;;19.01;44.09;102596.09;5045249;28;20079;-69
2022/11/30 11:14:44;;;;;;;22.23;13.60;;;;;;;18.49;44.91;102596.00;5049940;28;20033;-69
2022/11/30 11:17:18;;;;;;;21.87;13.63;;;;;;;19.76;43.34;102589.34;5044624;28;20036;-69
2022/11/30 11:19:46;;;;;;;22.23;11.90;;;;;;;19.81;42.87;102592.81;5044801;28;20021;-69